sensor_id;sensor_type;location;lat;lon;timestamp;P1;durP1;ratioP1;P2;durP2;ratioP2
12660;SDS011;39039;51.802;5.710;2022-12-18T00:02:23;67.60;;;26.77;;
12660;SDS011;39039;51.802;5.710;2022-12-18T00:04:50;68.50;;;25.33;;
12660;SDS011;39039;51.802;5.710;2022-12-18T00:07:17;66.73;;;25.23;;
12660;SDS011;39039;51.802;5.710;2022-12-18T00:09:44;65.20;;;24.50;;
12660;SDS011;39039;51.802;5.710;2022-12-18T00:12:12;67.63;;;26.47;;
12660;SDS011;39039;51.802;5.710;2022-12-18T00:14:46;64.70;;;24.83;;
12660;SDS011;39039;51.802;5.710;2022-12-18T00:17:13;58.87;;;23.13;;
12660;SDS011;39039;51.802;5.710;2022-12-18T00:19:40;71.33;;;25.10;;
12660;SDS011;39039;51.802;5.710;2022-12-18T00:22:07;68.87;;;24.43;;
12660;SDS011;39039;51.802;5.710;2022-12-18T00:24:34;64.57;;;25.43;;
12660;SDS011;39039;51.802;5.710;2022-12-18T00:27:01;60.77;;;25.47;;
12660;SDS011;39039;51.802;5.710;2022-12-18T00:29:28;61.57;;;25.67;;
12660;SDS011;39039;51.802;5.710;2022-12-18T00:31:57;62.00;;;22.80;;
12660;SDS011;39039;51.802;5.710;2022-12-18T00:34:24;66.60;;;24.67;;
12660;SDS011;39039;51.802;5.710;2022-12-18T00:36:51;59.73;;;22.33;;
12660;SDS011;39039;51.802;5.710;2022-12-18T00:39:20;65.73;;;25.13;;
12660;SDS011;39039;51.802;5.710;2022-12-18T00:41:48;65.30;;;23.17;;
12660;SDS011;39039;51.802;5.710;2022-12-18T00:44:32;63.87;;;25.17;;
12660;SDS011;39039;51.802;5.710;2022-12-18T00:47:00;63.17;;;24.00;;
12660;SDS011;39039;51.802;5.710;2022-12-18T00:49:27;59.33;;;23.43;;
12660;SDS011;39039;51.802;5.710;2022-12-18T00:51:55;60.00;;;21.83;;
12660;SDS011;39039;51.802;5.710;2022-12-18T00:54:22;51.30;;;22.37;;
12660;SDS011;39039;51.802;5.710;2022-12-18T00:56:49;56.10;;;22.50;;
12660;SDS011;39039;51.802;5.710;2022-12-18T00:59:16;52.77;;;21.43;;
12660;SDS011;39039;51.802;5.710;2022-12-18T01:01:43;56.43;;;20.73;;
12660;SDS011;39039;51.802;5.710;2022-12-18T01:04:15;57.67;;;23.00;;
12660;SDS011;39039;51.802;5.710;2022-12-18T01:06:44;53.97;;;22.10;;
12660;SDS011;39039;51.802;5.710;2022-12-18T01:09:13;52.43;;;19.77;;
12660;SDS011;39039;51.802;5.710;2022-12-18T01:11:40;50.53;;;21.63;;
12660;SDS011;39039;51.802;5.710;2022-12-18T01:14:07;45.97;;;20.00;;
12660;SDS011;39039;51.802;5.710;2022-12-18T01:16:34;47.20;;;19.93;;
12660;SDS011;39039;51.802;5.710;2022-12-18T01:19:04;42.10;;;20.10;;
12660;SDS011;39039;51.802;5.710;2022-12-18T01:21:37;40.73;;;18.63;;
12660;SDS011;39039;51.802;5.710;2022-12-18T01:24:04;51.50;;;19.10;;
12660;SDS011;39039;51.802;5.710;2022-12-18T01:26:32;51.93;;;20.60;;
12660;SDS011;39039;51.802;5.710;2022-12-18T01:28:59;41.07;;;18.17;;
12660;SDS011;39039;51.802;5.710;2022-12-18T01:31:26;44.60;;;18.40;;
12660;SDS011;39039;51.802;5.710;2022-12-18T01:33:54;45.63;;;19.57;;
12660;SDS011;39039;51.802;5.710;2022-12-18T01:36:22;44.77;;;18.10;;
12660;SDS011;39039;51.802;5.710;2022-12-18T01:38:54;42.13;;;18.43;;
12660;SDS011;39039;51.802;5.710;2022-12-18T01:41:26;40.97;;;18.83;;
12660;SDS011;39039;51.802;5.710;2022-12-18T01:47:00;52.73;;;19.70;;
12660;SDS011;39039;51.802;5.710;2022-12-18T01:49:28;44.83;;;19.00;;
12660;SDS011;39039;51.802;5.710;2022-12-18T01:51:55;41.63;;;18.03;;
12660;SDS011;39039;51.802;5.710;2022-12-18T01:54:23;39.30;;;17.93;;
12660;SDS011;39039;51.802;5.710;2022-12-18T01:56:50;41.10;;;18.13;;
12660;SDS011;39039;51.802;5.710;2022-12-18T01:59:17;43.13;;;17.73;;
12660;SDS011;39039;51.802;5.710;2022-12-18T02:01:44;40.93;;;18.20;;
12660;SDS011;39039;51.802;5.710;2022-12-18T02:04:18;46.33;;;17.30;;
12660;SDS011;39039;51.802;5.710;2022-12-18T02:06:46;44.33;;;17.67;;
12660;SDS011;39039;51.802;5.710;2022-12-18T02:09:15;36.40;;;16.40;;
12660;SDS011;39039;51.802;5.710;2022-12-18T02:11:46;41.70;;;17.43;;
12660;SDS011;39039;51.802;5.710;2022-12-18T02:14:18;41.57;;;17.90;;
12660;SDS011;39039;51.802;5.710;2022-12-18T02:16:51;46.07;;;17.50;;
12660;SDS011;39039;51.802;5.710;2022-12-18T02:19:23;43.60;;;17.33;;
12660;SDS011;39039;51.802;5.710;2022-12-18T02:21:55;38.30;;;16.93;;
12660;SDS011;39039;51.802;5.710;2022-12-18T02:24:28;48.60;;;17.57;;
12660;SDS011;39039;51.802;5.710;2022-12-18T02:26:58;41.03;;;17.73;;
12660;SDS011;39039;51.802;5.710;2022-12-18T02:29:27;39.80;;;17.47;;
12660;SDS011;39039;51.802;5.710;2022-12-18T02:31:59;42.93;;;17.57;;
12660;SDS011;39039;51.802;5.710;2022-12-18T02:34:29;33.13;;;15.63;;
12660;SDS011;39039;51.802;5.710;2022-12-18T02:36:57;45.93;;;17.67;;
12660;SDS011;39039;51.802;5.710;2022-12-18T02:39:27;37.97;;;16.83;;
12660;SDS011;39039;51.802;5.710;2022-12-18T02:41:57;43.03;;;17.83;;
12660;SDS011;39039;51.802;5.710;2022-12-18T02:44:27;42.17;;;16.53;;
12660;SDS011;39039;51.802;5.710;2022-12-18T02:46:54;40.13;;;16.20;;
12660;SDS011;39039;51.802;5.710;2022-12-18T02:49:24;39.63;;;16.97;;
12660;SDS011;39039;51.802;5.710;2022-12-18T02:51:53;48.67;;;19.70;;
12660;SDS011;39039;51.802;5.710;2022-12-18T02:54:33;37.13;;;15.63;;
12660;SDS011;39039;51.802;5.710;2022-12-18T02:57:05;43.23;;;17.13;;
12660;SDS011;39039;51.802;5.710;2022-12-18T02:59:37;35.27;;;15.67;;
12660;SDS011;39039;51.802;5.710;2022-12-18T03:02:14;36.43;;;16.33;;
12660;SDS011;39039;51.802;5.710;2022-12-18T03:04:45;35.50;;;15.97;;
12660;SDS011;39039;51.802;5.710;2022-12-18T03:07:15;34.87;;;15.60;;
12660;SDS011;39039;51.802;5.710;2022-12-18T03:09:43;39.37;;;15.83;;
12660;SDS011;39039;51.802;5.710;2022-12-18T03:12:14;31.30;;;15.57;;
12660;SDS011;39039;51.802;5.710;2022-12-18T03:14:49;39.83;;;15.30;;
12660;SDS011;39039;51.802;5.710;2022-12-18T03:17:18;33.27;;;15.27;;
12660;SDS011;39039;51.802;5.710;2022-12-18T03:19:45;35.53;;;14.60;;
12660;SDS011;39039;51.802;5.710;2022-12-18T03:22:13;35.73;;;15.23;;
12660;SDS011;39039;51.802;5.710;2022-12-18T03:24:41;33.43;;;14.80;;
12660;SDS011;39039;51.802;5.710;2022-12-18T03:27:09;29.23;;;14.27;;
12660;SDS011;39039;51.802;5.710;2022-12-18T03:29:40;30.03;;;14.47;;
12660;SDS011;39039;51.802;5.710;2022-12-18T03:32:09;32.37;;;15.03;;
12660;SDS011;39039;51.802;5.710;2022-12-18T03:34:37;36.90;;;15.33;;
12660;SDS011;39039;51.802;5.710;2022-12-18T03:37:07;34.57;;;14.47;;
12660;SDS011;39039;51.802;5.710;2022-12-18T03:39:38;31.87;;;13.77;;
12660;SDS011;39039;51.802;5.710;2022-12-18T03:42:05;33.97;;;13.17;;
12660;SDS011;39039;51.802;5.710;2022-12-18T03:44:36;33.07;;;13.77;;
12660;SDS011;39039;51.802;5.710;2022-12-18T03:47:09;39.60;;;15.30;;
12660;SDS011;39039;51.802;5.710;2022-12-18T03:49:41;37.03;;;15.17;;
12660;SDS011;39039;51.802;5.710;2022-12-18T03:52:12;33.43;;;14.37;;
12660;SDS011;39039;51.802;5.710;2022-12-18T03:54:44;30.23;;;13.50;;
12660;SDS011;39039;51.802;5.710;2022-12-18T03:57:13;29.90;;;13.47;;
12660;SDS011;39039;51.802;5.710;2022-12-18T03:59:41;32.87;;;13.37;;
12660;SDS011;39039;51.802;5.710;2022-12-18T04:02:11;31.83;;;13.57;;
12660;SDS011;39039;51.802;5.710;2022-12-18T04:04:38;35.63;;;14.63;;
12660;SDS011;39039;51.802;5.710;2022-12-18T04:07:06;28.87;;;12.60;;
12660;SDS011;39039;51.802;5.710;2022-12-18T04:09:33;29.97;;;14.03;;
12660;SDS011;39039;51.802;5.710;2022-12-18T04:12:00;30.10;;;13.67;;
12660;SDS011;39039;51.802;5.710;2022-12-18T04:14:28;28.87;;;13.93;;
12660;SDS011;39039;51.802;5.710;2022-12-18T04:16:55;28.87;;;13.13;;
12660;SDS011;39039;51.802;5.710;2022-12-18T04:19:24;33.97;;;13.47;;
12660;SDS011;39039;51.802;5.710;2022-12-18T04:21:51;26.93;;;12.70;;
12660;SDS011;39039;51.802;5.710;2022-12-18T04:24:18;26.13;;;12.80;;
12660;SDS011;39039;51.802;5.710;2022-12-18T04:26:49;29.33;;;13.33;;
12660;SDS011;39039;51.802;5.710;2022-12-18T04:29:16;31.03;;;13.57;;
12660;SDS011;39039;51.802;5.710;2022-12-18T04:31:43;31.77;;;13.23;;
12660;SDS011;39039;51.802;5.710;2022-12-18T04:34:10;24.87;;;11.90;;
12660;SDS011;39039;51.802;5.710;2022-12-18T04:36:39;25.93;;;12.50;;
12660;SDS011;39039;51.802;5.710;2022-12-18T04:39:06;25.17;;;11.63;;
12660;SDS011;39039;51.802;5.710;2022-12-18T04:41:33;29.33;;;12.20;;
12660;SDS011;39039;51.802;5.710;2022-12-18T04:44:00;29.70;;;12.63;;
12660;SDS011;39039;51.802;5.710;2022-12-18T04:46:27;29.27;;;12.13;;
12660;SDS011;39039;51.802;5.710;2022-12-18T04:48:54;28.57;;;11.80;;
12660;SDS011;39039;51.802;5.710;2022-12-18T04:51:21;27.73;;;11.43;;
12660;SDS011;39039;51.802;5.710;2022-12-18T04:53:50;28.93;;;12.07;;
12660;SDS011;39039;51.802;5.710;2022-12-18T04:56:17;26.23;;;11.23;;
12660;SDS011;39039;51.802;5.710;2022-12-18T04:58:44;24.20;;;11.30;;
12660;SDS011;39039;51.802;5.710;2022-12-18T05:01:11;22.67;;;11.87;;
12660;SDS011;39039;51.802;5.710;2022-12-18T05:03:38;27.50;;;11.57;;
12660;SDS011;39039;51.802;5.710;2022-12-18T05:06:06;19.47;;;10.33;;
12660;SDS011;39039;51.802;5.710;2022-12-18T05:08:33;23.47;;;11.03;;
12660;SDS011;39039;51.802;5.710;2022-12-18T05:11:02;25.57;;;10.97;;
12660;SDS011;39039;51.802;5.710;2022-12-18T05:13:31;26.77;;;11.53;;
12660;SDS011;39039;51.802;5.710;2022-12-18T05:16:05;20.93;;;10.20;;
12660;SDS011;39039;51.802;5.710;2022-12-18T05:18:32;21.27;;;10.37;;
12660;SDS011;39039;51.802;5.710;2022-12-18T05:20:59;24.13;;;10.90;;
12660;SDS011;39039;51.802;5.710;2022-12-18T05:23:26;24.43;;;12.50;;
12660;SDS011;39039;51.802;5.710;2022-12-18T05:25:53;25.67;;;11.17;;
12660;SDS011;39039;51.802;5.710;2022-12-18T05:28:22;32.47;;;11.83;;
12660;SDS011;39039;51.802;5.710;2022-12-18T05:30:50;28.03;;;11.83;;
12660;SDS011;39039;51.802;5.710;2022-12-18T05:33:17;25.50;;;11.93;;
12660;SDS011;39039;51.802;5.710;2022-12-18T05:35:44;27.67;;;11.80;;
12660;SDS011;39039;51.802;5.710;2022-12-18T05:38:16;25.07;;;11.80;;
12660;SDS011;39039;51.802;5.710;2022-12-18T05:40:45;35.63;;;13.20;;
12660;SDS011;39039;51.802;5.710;2022-12-18T05:43:13;25.27;;;11.53;;
12660;SDS011;39039;51.802;5.710;2022-12-18T05:45:42;23.83;;;11.73;;
12660;SDS011;39039;51.802;5.710;2022-12-18T05:48:12;29.03;;;12.03;;
12660;SDS011;39039;51.802;5.710;2022-12-18T05:50:40;22.23;;;11.90;;
12660;SDS011;39039;51.802;5.710;2022-12-18T05:53:11;27.30;;;11.70;;
12660;SDS011;39039;51.802;5.710;2022-12-18T05:55:38;21.93;;;11.90;;
12660;SDS011;39039;51.802;5.710;2022-12-18T05:58:06;23.30;;;12.20;;
12660;SDS011;39039;51.802;5.710;2022-12-18T06:00:34;26.30;;;11.90;;
12660;SDS011;39039;51.802;5.710;2022-12-18T06:03:06;29.60;;;11.67;;
12660;SDS011;39039;51.802;5.710;2022-12-18T06:05:34;25.60;;;11.30;;
12660;SDS011;39039;51.802;5.710;2022-12-18T06:08:01;30.43;;;11.73;;
12660;SDS011;39039;51.802;5.710;2022-12-18T06:10:28;26.60;;;11.43;;
12660;SDS011;39039;51.802;5.710;2022-12-18T06:12:55;24.03;;;11.90;;
12660;SDS011;39039;51.802;5.710;2022-12-18T06:15:22;22.87;;;11.53;;
12660;SDS011;39039;51.802;5.710;2022-12-18T06:17:49;25.60;;;11.13;;
12660;SDS011;39039;51.802;5.710;2022-12-18T06:20:18;26.60;;;11.30;;
12660;SDS011;39039;51.802;5.710;2022-12-18T06:22:45;25.33;;;11.67;;
12660;SDS011;39039;51.802;5.710;2022-12-18T06:25:14;26.40;;;13.07;;
12660;SDS011;39039;51.802;5.710;2022-12-18T06:27:44;24.87;;;10.90;;
12660;SDS011;39039;51.802;5.710;2022-12-18T06:30:13;27.57;;;12.27;;
12660;SDS011;39039;51.802;5.710;2022-12-18T06:32:41;22.47;;;11.03;;
12660;SDS011;39039;51.802;5.710;2022-12-18T06:35:08;27.20;;;12.13;;
12660;SDS011;39039;51.802;5.710;2022-12-18T06:37:36;31.20;;;13.10;;
12660;SDS011;39039;51.802;5.710;2022-12-18T06:40:07;27.07;;;13.20;;
12660;SDS011;39039;51.802;5.710;2022-12-18T06:42:34;26.53;;;12.43;;
12660;SDS011;39039;51.802;5.710;2022-12-18T06:45:01;21.80;;;11.23;;
12660;SDS011;39039;51.802;5.710;2022-12-18T06:47:28;23.93;;;12.50;;
12660;SDS011;39039;51.802;5.710;2022-12-18T06:49:55;23.43;;;12.40;;
12660;SDS011;39039;51.802;5.710;2022-12-18T06:52:22;23.30;;;11.33;;
12660;SDS011;39039;51.802;5.710;2022-12-18T06:54:52;27.47;;;11.63;;
12660;SDS011;39039;51.802;5.710;2022-12-18T06:57:19;26.03;;;11.63;;
12660;SDS011;39039;51.802;5.710;2022-12-18T06:59:46;20.87;;;11.13;;
12660;SDS011;39039;51.802;5.710;2022-12-18T07:02:13;21.87;;;12.57;;
12660;SDS011;39039;51.802;5.710;2022-12-18T07:04:41;23.97;;;12.13;;
12660;SDS011;39039;51.802;5.710;2022-12-18T07:07:08;24.67;;;11.40;;
12660;SDS011;39039;51.802;5.710;2022-12-18T07:09:35;28.87;;;12.20;;
12660;SDS011;39039;51.802;5.710;2022-12-18T07:12:03;18.80;;;11.10;;
12660;SDS011;39039;51.802;5.710;2022-12-18T07:14:31;29.33;;;13.70;;
12660;SDS011;39039;51.802;5.710;2022-12-18T07:16:58;21.63;;;11.60;;
12660;SDS011;39039;51.802;5.710;2022-12-18T07:19:28;23.67;;;11.53;;
12660;SDS011;39039;51.802;5.710;2022-12-18T07:21:56;22.43;;;11.27;;
12660;SDS011;39039;51.802;5.710;2022-12-18T07:24:23;24.13;;;11.50;;
12660;SDS011;39039;51.802;5.710;2022-12-18T07:26:50;25.37;;;12.00;;
12660;SDS011;39039;51.802;5.710;2022-12-18T07:29:18;24.73;;;11.20;;
12660;SDS011;39039;51.802;5.710;2022-12-18T07:31:48;26.57;;;11.97;;
12660;SDS011;39039;51.802;5.710;2022-12-18T07:34:18;27.77;;;11.80;;
12660;SDS011;39039;51.802;5.710;2022-12-18T07:36:49;24.10;;;11.50;;
12660;SDS011;39039;51.802;5.710;2022-12-18T07:39:16;19.03;;;10.03;;
12660;SDS011;39039;51.802;5.710;2022-12-18T07:41:43;24.23;;;11.73;;
12660;SDS011;39039;51.802;5.710;2022-12-18T07:44:33;23.57;;;11.13;;
12660;SDS011;39039;51.802;5.710;2022-12-18T07:47:00;27.93;;;12.37;;
12660;SDS011;39039;51.802;5.710;2022-12-18T07:49:27;24.83;;;10.67;;
12660;SDS011;39039;51.802;5.710;2022-12-18T07:51:54;25.97;;;12.20;;
12660;SDS011;39039;51.802;5.710;2022-12-18T07:54:24;24.77;;;11.50;;
12660;SDS011;39039;51.802;5.710;2022-12-18T07:56:51;21.37;;;10.70;;
12660;SDS011;39039;51.802;5.710;2022-12-18T07:59:18;20.57;;;10.57;;
12660;SDS011;39039;51.802;5.710;2022-12-18T08:01:47;24.70;;;11.40;;
12660;SDS011;39039;51.802;5.710;2022-12-18T08:04:13;22.10;;;10.90;;
12660;SDS011;39039;51.802;5.710;2022-12-18T08:06:40;27.53;;;11.33;;
12660;SDS011;39039;51.802;5.710;2022-12-18T08:09:09;22.97;;;11.97;;
12660;SDS011;39039;51.802;5.710;2022-12-18T08:11:36;23.37;;;11.27;;
12660;SDS011;39039;51.802;5.710;2022-12-18T08:14:03;22.37;;;10.73;;
12660;SDS011;39039;51.802;5.710;2022-12-18T08:16:30;23.17;;;11.10;;
12660;SDS011;39039;51.802;5.710;2022-12-18T08:18:59;26.13;;;11.87;;
12660;SDS011;39039;51.802;5.710;2022-12-18T08:21:26;21.07;;;10.77;;
12660;SDS011;39039;51.802;5.710;2022-12-18T08:23:55;26.17;;;11.97;;
12660;SDS011;39039;51.802;5.710;2022-12-18T08:26:22;24.43;;;12.40;;
12660;SDS011;39039;51.802;5.710;2022-12-18T08:28:50;25.30;;;11.27;;
12660;SDS011;39039;51.802;5.710;2022-12-18T08:31:17;19.70;;;10.20;;
12660;SDS011;39039;51.802;5.710;2022-12-18T08:33:44;21.63;;;10.67;;
12660;SDS011;39039;51.802;5.710;2022-12-18T08:36:17;21.73;;;11.17;;
12660;SDS011;39039;51.802;5.710;2022-12-18T08:38:44;21.00;;;10.97;;
12660;SDS011;39039;51.802;5.710;2022-12-18T08:41:12;20.33;;;10.10;;
12660;SDS011;39039;51.802;5.710;2022-12-18T08:43:39;21.67;;;10.70;;
12660;SDS011;39039;51.802;5.710;2022-12-18T08:46:24;21.67;;;10.83;;
12660;SDS011;39039;51.802;5.710;2022-12-18T08:48:54;25.33;;;10.67;;
12660;SDS011;39039;51.802;5.710;2022-12-18T08:51:25;21.57;;;10.80;;
12660;SDS011;39039;51.802;5.710;2022-12-18T08:53:53;22.13;;;10.63;;
12660;SDS011;39039;51.802;5.710;2022-12-18T08:56:22;22.87;;;10.10;;
12660;SDS011;39039;51.802;5.710;2022-12-18T08:58:53;20.77;;;11.03;;
12660;SDS011;39039;51.802;5.710;2022-12-18T09:01:20;22.27;;;9.83;;
12660;SDS011;39039;51.802;5.710;2022-12-18T09:03:47;23.27;;;10.53;;
12660;SDS011;39039;51.802;5.710;2022-12-18T09:06:14;18.23;;;9.17;;
12660;SDS011;39039;51.802;5.710;2022-12-18T09:08:43;22.27;;;10.10;;
12660;SDS011;39039;51.802;5.710;2022-12-18T09:11:11;24.87;;;10.97;;
12660;SDS011;39039;51.802;5.710;2022-12-18T09:13:41;19.73;;;9.23;;
12660;SDS011;39039;51.802;5.710;2022-12-18T09:16:08;19.73;;;8.73;;
12660;SDS011;39039;51.802;5.710;2022-12-18T09:18:36;21.20;;;9.93;;
12660;SDS011;39039;51.802;5.710;2022-12-18T09:21:09;17.83;;;8.77;;
12660;SDS011;39039;51.802;5.710;2022-12-18T09:23:36;19.00;;;9.40;;
12660;SDS011;39039;51.802;5.710;2022-12-18T09:26:05;22.40;;;10.47;;
12660;SDS011;39039;51.802;5.710;2022-12-18T09:28:32;19.80;;;9.53;;
12660;SDS011;39039;51.802;5.710;2022-12-18T09:31:03;19.73;;;9.27;;
12660;SDS011;39039;51.802;5.710;2022-12-18T09:33:30;22.70;;;9.70;;
12660;SDS011;39039;51.802;5.710;2022-12-18T09:35:57;22.77;;;9.43;;
12660;SDS011;39039;51.802;5.710;2022-12-18T09:38:24;20.27;;;9.93;;
12660;SDS011;39039;51.802;5.710;2022-12-18T09:40:55;18.87;;;8.90;;
12660;SDS011;39039;51.802;5.710;2022-12-18T09:43:33;15.93;;;8.27;;
12660;SDS011;39039;51.802;5.710;2022-12-18T09:46:06;18.53;;;8.50;;
12660;SDS011;39039;51.802;5.710;2022-12-18T09:48:37;15.70;;;8.30;;
12660;SDS011;39039;51.802;5.710;2022-12-18T09:51:09;19.80;;;9.47;;
12660;SDS011;39039;51.802;5.710;2022-12-18T09:53:38;19.37;;;8.57;;
12660;SDS011;39039;51.802;5.710;2022-12-18T09:56:10;19.17;;;9.07;;
12660;SDS011;39039;51.802;5.710;2022-12-18T09:58:41;22.67;;;9.83;;
12660;SDS011;39039;51.802;5.710;2022-12-18T10:01:10;19.90;;;9.17;;
12660;SDS011;39039;51.802;5.710;2022-12-18T10:03:37;18.60;;;8.50;;
12660;SDS011;39039;51.802;5.710;2022-12-18T10:06:06;19.70;;;8.80;;
12660;SDS011;39039;51.802;5.710;2022-12-18T10:08:37;18.13;;;9.60;;
12660;SDS011;39039;51.802;5.710;2022-12-18T10:11:13;14.37;;;7.97;;
12660;SDS011;39039;51.802;5.710;2022-12-18T10:13:45;22.67;;;9.40;;
12660;SDS011;39039;51.802;5.710;2022-12-18T10:16:17;20.53;;;9.17;;
12660;SDS011;39039;51.802;5.710;2022-12-18T10:19:04;17.10;;;8.13;;
12660;SDS011;39039;51.802;5.710;2022-12-18T10:21:37;14.37;;;7.97;;
12660;SDS011;39039;51.802;5.710;2022-12-18T10:24:08;16.07;;;8.43;;
12660;SDS011;39039;51.802;5.710;2022-12-18T10:26:40;18.77;;;8.97;;
12660;SDS011;39039;51.802;5.710;2022-12-18T10:29:12;15.03;;;8.40;;
12660;SDS011;39039;51.802;5.710;2022-12-18T10:31:39;16.00;;;8.00;;
12660;SDS011;39039;51.802;5.710;2022-12-18T10:34:08;20.43;;;8.50;;
12660;SDS011;39039;51.802;5.710;2022-12-18T10:36:35;15.60;;;8.30;;
12660;SDS011;39039;51.802;5.710;2022-12-18T10:39:14;17.67;;;9.30;;
12660;SDS011;39039;51.802;5.710;2022-12-18T10:41:41;15.57;;;8.10;;
12660;SDS011;39039;51.802;5.710;2022-12-18T10:44:19;17.43;;;8.33;;
12660;SDS011;39039;51.802;5.710;2022-12-18T10:46:46;17.63;;;8.10;;
12660;SDS011;39039;51.802;5.710;2022-12-18T10:49:18;13.23;;;7.30;;
12660;SDS011;39039;51.802;5.710;2022-12-18T10:51:45;19.27;;;8.20;;
12660;SDS011;39039;51.802;5.710;2022-12-18T10:54:15;14.03;;;7.03;;
12660;SDS011;39039;51.802;5.710;2022-12-18T10:56:43;15.20;;;8.63;;
12660;SDS011;39039;51.802;5.710;2022-12-18T10:59:16;18.47;;;8.40;;
12660;SDS011;39039;51.802;5.710;2022-12-18T11:01:52;14.77;;;7.90;;
12660;SDS011;39039;51.802;5.710;2022-12-18T11:04:20;19.47;;;8.50;;
12660;SDS011;39039;51.802;5.710;2022-12-18T11:06:52;18.33;;;7.67;;
12660;SDS011;39039;51.802;5.710;2022-12-18T11:09:21;15.83;;;8.67;;
12660;SDS011;39039;51.802;5.710;2022-12-18T11:11:50;16.97;;;8.73;;
12660;SDS011;39039;51.802;5.710;2022-12-18T11:14:20;20.90;;;8.60;;
12660;SDS011;39039;51.802;5.710;2022-12-18T11:16:48;16.40;;;7.40;;
12660;SDS011;39039;51.802;5.710;2022-12-18T11:19:23;17.63;;;8.57;;
12660;SDS011;39039;51.802;5.710;2022-12-18T11:21:51;17.43;;;7.60;;
12660;SDS011;39039;51.802;5.710;2022-12-18T11:24:23;16.33;;;7.60;;
12660;SDS011;39039;51.802;5.710;2022-12-18T11:26:51;19.20;;;8.37;;
12660;SDS011;39039;51.802;5.710;2022-12-18T11:29:22;17.33;;;8.10;;
12660;SDS011;39039;51.802;5.710;2022-12-18T11:31:50;17.47;;;7.87;;
12660;SDS011;39039;51.802;5.710;2022-12-18T11:34:19;13.10;;;7.33;;
12660;SDS011;39039;51.802;5.710;2022-12-18T11:36:48;14.90;;;7.73;;
12660;SDS011;39039;51.802;5.710;2022-12-18T11:39:16;20.80;;;8.27;;
12660;SDS011;39039;51.802;5.710;2022-12-18T11:41:47;14.83;;;7.97;;
12660;SDS011;39039;51.802;5.710;2022-12-18T11:44:38;19.37;;;7.97;;
12660;SDS011;39039;51.802;5.710;2022-12-18T11:47:10;19.63;;;8.47;;
12660;SDS011;39039;51.802;5.710;2022-12-18T11:49:39;16.57;;;9.17;;
12660;SDS011;39039;51.802;5.710;2022-12-18T11:52:12;20.40;;;9.53;;
12660;SDS011;39039;51.802;5.710;2022-12-18T11:54:42;21.03;;;9.93;;
12660;SDS011;39039;51.802;5.710;2022-12-18T11:57:10;15.93;;;8.37;;
12660;SDS011;39039;51.802;5.710;2022-12-18T11:59:42;22.07;;;9.87;;
12660;SDS011;39039;51.802;5.710;2022-12-18T12:02:17;20.00;;;10.23;;
12660;SDS011;39039;51.802;5.710;2022-12-18T12:04:56;19.13;;;9.23;;
12660;SDS011;39039;51.802;5.710;2022-12-18T12:07:33;20.73;;;9.23;;
12660;SDS011;39039;51.802;5.710;2022-12-18T12:10:03;19.67;;;8.43;;
12660;SDS011;39039;51.802;5.710;2022-12-18T12:12:40;21.43;;;10.07;;
12660;SDS011;39039;51.802;5.710;2022-12-18T12:15:17;19.83;;;9.73;;
12660;SDS011;39039;51.802;5.710;2022-12-18T12:17:49;23.60;;;10.40;;
12660;SDS011;39039;51.802;5.710;2022-12-18T12:20:20;18.60;;;9.40;;
12660;SDS011;39039;51.802;5.710;2022-12-18T12:22:52;19.50;;;9.67;;
12660;SDS011;39039;51.802;5.710;2022-12-18T12:25:27;20.13;;;9.13;;
12660;SDS011;39039;51.802;5.710;2022-12-18T12:27:58;19.90;;;9.37;;
12660;SDS011;39039;51.802;5.710;2022-12-18T12:30:38;16.87;;;8.83;;
12660;SDS011;39039;51.802;5.710;2022-12-18T12:33:12;17.27;;;8.47;;
12660;SDS011;39039;51.802;5.710;2022-12-18T12:35:49;19.50;;;9.10;;
12660;SDS011;39039;51.802;5.710;2022-12-18T12:38:21;16.57;;;8.67;;
12660;SDS011;39039;51.802;5.710;2022-12-18T12:40:51;18.40;;;8.47;;
12660;SDS011;39039;51.802;5.710;2022-12-18T12:43:24;17.00;;;8.33;;
12660;SDS011;39039;51.802;5.710;2022-12-18T12:45:52;15.30;;;8.00;;
12660;SDS011;39039;51.802;5.710;2022-12-18T12:48:28;21.37;;;9.37;;
12660;SDS011;39039;51.802;5.710;2022-12-18T12:51:00;19.27;;;8.80;;
12660;SDS011;39039;51.802;5.710;2022-12-18T12:53:34;17.07;;;8.27;;
12660;SDS011;39039;51.802;5.710;2022-12-18T12:56:03;20.80;;;9.03;;
12660;SDS011;39039;51.802;5.710;2022-12-18T12:58:32;17.80;;;8.07;;
12660;SDS011;39039;51.802;5.710;2022-12-18T13:01:03;16.40;;;8.37;;
12660;SDS011;39039;51.802;5.710;2022-12-18T13:03:34;18.80;;;8.70;;
12660;SDS011;39039;51.802;5.710;2022-12-18T13:06:08;16.03;;;8.53;;
12660;SDS011;39039;51.802;5.710;2022-12-18T13:08:53;20.47;;;8.20;;
12660;SDS011;39039;51.802;5.710;2022-12-18T13:11:28;17.50;;;7.80;;
12660;SDS011;39039;51.802;5.710;2022-12-18T13:14:19;15.10;;;8.37;;
12660;SDS011;39039;51.802;5.710;2022-12-18T13:16:47;19.80;;;8.30;;
12660;SDS011;39039;51.802;5.710;2022-12-18T13:19:19;21.13;;;8.50;;
12660;SDS011;39039;51.802;5.710;2022-12-18T13:21:52;14.83;;;8.00;;
12660;SDS011;39039;51.802;5.710;2022-12-18T13:24:24;17.37;;;8.77;;
12660;SDS011;39039;51.802;5.710;2022-12-18T13:26:52;18.17;;;8.33;;
12660;SDS011;39039;51.802;5.710;2022-12-18T13:32:15;16.73;;;8.80;;
12660;SDS011;39039;51.802;5.710;2022-12-18T13:34:47;15.47;;;8.23;;
12660;SDS011;39039;51.802;5.710;2022-12-18T13:37:39;15.53;;;8.50;;
12660;SDS011;39039;51.802;5.710;2022-12-18T13:43:19;18.27;;;8.90;;
12660;SDS011;39039;51.802;5.710;2022-12-18T13:45:48;17.83;;;8.53;;
12660;SDS011;39039;51.802;5.710;2022-12-18T13:48:17;18.77;;;9.17;;
12660;SDS011;39039;51.802;5.710;2022-12-18T13:50:48;21.13;;;9.17;;
12660;SDS011;39039;51.802;5.710;2022-12-18T13:53:16;16.83;;;9.07;;
12660;SDS011;39039;51.802;5.710;2022-12-18T13:55:46;16.97;;;7.93;;
12660;SDS011;39039;51.802;5.710;2022-12-18T13:58:13;17.10;;;9.00;;
12660;SDS011;39039;51.802;5.710;2022-12-18T14:00:42;19.53;;;9.00;;
12660;SDS011;39039;51.802;5.710;2022-12-18T14:03:15;19.03;;;8.37;;
12660;SDS011;39039;51.802;5.710;2022-12-18T14:05:44;16.53;;;8.37;;
12660;SDS011;39039;51.802;5.710;2022-12-18T14:08:12;20.00;;;8.93;;
12660;SDS011;39039;51.802;5.710;2022-12-18T14:10:40;18.17;;;8.33;;
12660;SDS011;39039;51.802;5.710;2022-12-18T14:13:08;18.60;;;8.27;;
12660;SDS011;39039;51.802;5.710;2022-12-18T14:15:36;25.00;;;9.13;;
12660;SDS011;39039;51.802;5.710;2022-12-18T14:18:14;21.37;;;8.57;;
12660;SDS011;39039;51.802;5.710;2022-12-18T14:20:44;18.73;;;8.90;;
12660;SDS011;39039;51.802;5.710;2022-12-18T14:23:24;19.17;;;8.33;;
12660;SDS011;39039;51.802;5.710;2022-12-18T14:25:52;18.00;;;8.20;;
12660;SDS011;39039;51.802;5.710;2022-12-18T14:28:23;18.63;;;9.07;;
12660;SDS011;39039;51.802;5.710;2022-12-18T14:30:51;16.20;;;8.63;;
12660;SDS011;39039;51.802;5.710;2022-12-18T14:33:21;18.03;;;8.40;;
12660;SDS011;39039;51.802;5.710;2022-12-18T14:35:54;16.60;;;8.73;;
12660;SDS011;39039;51.802;5.710;2022-12-18T14:38:22;17.73;;;9.37;;
12660;SDS011;39039;51.802;5.710;2022-12-18T14:40:53;20.00;;;8.50;;
12660;SDS011;39039;51.802;5.710;2022-12-18T14:43:21;19.77;;;8.57;;
12660;SDS011;39039;51.802;5.710;2022-12-18T14:45:48;18.53;;;9.67;;
12660;SDS011;39039;51.802;5.710;2022-12-18T14:48:16;18.50;;;9.00;;
12660;SDS011;39039;51.802;5.710;2022-12-18T14:50:45;19.73;;;8.90;;